Flight Track Log - Related Links

Times and Time Zones

All times are in EDT time to prevent confusion due to time zone crossing. See the N437FA flight status page for this flight to view local times or setup timezone preferences in your user account.

Time Position Orientation Groundspeed Altitude Reporting Facility
EDT Latitude Longitude Course Direction KTS MPH feet Rate Location/Type
Thu 09:58:07 AM 41.2833 -72.9500 39° Northeast 128 147 5,500  Level New York TRACON
Thu 10:00:17 AM 41.3428 -72.8853 39° Northeast 124 143 5,500  Level Boston Center
Thu 10:01:12 AM 41.3681 -72.8633 33° Northeast 122 140 5,500  Level Boston Center
Thu 10:02:19 AM 41.3994 -72.8331 36° Northeast 124 143 5,500  Level Boston Center
Thu 10:03:20 AM 41.4286 -72.8056 35° Northeast 124 143 5,500  Level Boston Center
Thu 10:04:23 AM 41.4578 -72.7808 32° Northeast 121 139 5,500  Level Boston Center
Thu 10:05:22 AM 41.4850 -72.7533 37° Northeast 121 139 5,500  Level Boston Center
Thu 10:06:53 AM 41.5269 -72.7144 35° Northeast 120 138 5,500  Level Boston Center
Thu 10:07:48 AM 41.5497 -72.6897 39° Northeast 121 139 5,500  Level Boston Center
Thu 10:08:54 AM 41.5792 -72.6619 35° Northeast 120 138 5,500  Level Boston Center
Thu 10:09:31 AM 41.5958 -72.6483 31° Northeast 121 139 5,500  Level Boston Center
Thu 10:10:38 AM 41.6269 -72.6178 36° Northeast 121 139 5,500  Level Boston Center
Thu 10:11:41 AM 41.6564 -72.5900 35° Northeast 123 142 5,500  Level Boston Center
Thu 10:12:33 AM 41.6792 -72.5681 36° Northeast 121 139 5,500  Level Boston Center
Thu 10:13:41 AM 41.7106 -72.5375 36° Northeast 121 139 5,500  Level Boston Center
Thu 10:14:50 AM 41.7417 -72.5069 36° Northeast 121 139 5,500  Level Boston Center
Thu 10:15:50 AM 41.7689 -72.4819 34° Northeast 125 144 5,500  Level Boston Center
Thu 10:16:51 AM 41.7981 -72.4539 36° Northeast 123 142 5,500  Level Boston Center
Thu 10:17:45 AM 41.8253 -72.4289 34° Northeast 122 140 5,500  Level Boston Center
Thu 10:18:46 AM 41.8522 -72.4011 38° Northeast 125 144 5,500  Level Boston Center
Thu 10:19:59 AM 41.8856 -72.3703 35° Northeast 122 140 5,500  Level Boston Center
Thu 10:21:00 AM 41.9128 -72.3425 37° Northeast 121 139 5,500  Level Boston Center
Thu 10:22:00 AM 41.9419 -72.3172 33° Northeast 119 137 5,500  Level Boston Center
Thu 10:23:09 AM 41.9711 -72.2864 38° Northeast 122 140 5,500  Level Boston Center
Thu 10:23:53 AM 41.9897 -72.2669 38° Northeast 121 139 5,500  Level Boston Center
Thu 10:24:59 AM 42.0189 -72.2389 36° Northeast 117 135 5,500  Level Boston Center
Thu 10:25:53 AM 42.0458 -72.2136 35° Northeast 124 143 5,500  Level Boston Center
Thu 10:26:54 AM 42.0731 -72.1883 35° Northeast 119 137 5,500  Level Boston Center
Thu 10:28:14 AM 42.1103 -72.1547 34° Northeast 121 139 5,500  Level Boston Center
Thu 10:28:56 AM 42.1292 -72.1350 38° Northeast 122 140 5,500  Level Boston Center
Thu 10:29:39 AM 42.1456 -72.1153 42° Northeast 121 139 5,500  Level Boston Center
Thu 10:30:40 AM 42.1789 -72.0842 35° Northeast 121 139 5,500  Level Boston Center
Thu 10:31:40 AM 42.2039 -72.0617 34° Northeast 121 139 5,500  Level Boston Center
Thu 10:32:10 AM 42.2183 -72.0475 36° Northeast 125 144 5,500  Level Boston Center
Thu 10:32:41 AM 42.2331 -72.0306 40° Northeast 126 145 5,500  Level Boston Center
Thu 10:33:41 AM 42.2558 -72.0081 36° Northeast 138 159 5,500 50 Level Boston Center
Thu 10:34:41 AM 42.2889 -71.9769 35° Northeast 133 153 5,600  Climbing Boston Center
Thu 10:35:39 AM 42.3119 -71.9544 36° Northeast 128 147 5,500 -50 Descending Boston Center
Thu 10:36:40 AM 42.3472 -71.9206 35° Northeast 128 147 5,500  Level Boston Center
Thu 10:37:40 AM 42.3742 -71.8950 35° Northeast 128 147 5,500  Level Boston Center
Thu 10:38:40 AM 42.4011 -71.8667 38° Northeast 128 147 5,500  Level Boston Center
Thu 10:39:41 AM 42.4322 -71.8381 34° Northeast 122 140 5,500  Level Boston Center
Thu 10:40:39 AM 42.4508 -71.8211 34° Northeast 122 140 5,500  Level Boston Center
Thu 10:41:39 AM 42.4797 -71.7925 36° Northeast 122 140 5,500  Level Boston Center
Thu 10:42:39 AM 42.5108 -71.7586 39° Northeast 122 140 5,500  Level Boston Center
Thu 10:43:40 AM 42.5419 -71.7300 34° Northeast 122 140 5,500  Level Boston Center
Thu 10:44:41 AM 42.5586 -71.7100 41° Northeast 122 140 5,500  Level Boston Center
Thu 10:45:41 AM 42.5958 -71.6758 34° Northeast 122 140 5,500 -50 Level Boston Center
Thu 10:46:42 AM 42.6228 -71.6500 35° Northeast 122 140 5,400 -51 Descending Boston Center
Thu 10:47:39 AM 42.6497 -71.6214 38° Northeast 122 140 5,400  Level Boston Center
Thu 10:48:39 AM 42.6786 -71.5928 36° Northeast 122 140 5,400  Level Boston Center
Thu 10:49:40 AM 42.7075 -71.5642 36° Northeast 122 140 5,400  Level Boston Center
Thu 10:50:41 AM 42.7344 -71.5356 38° Northeast 122 140 5,400  Level Boston Center
Thu 10:51:41 AM 42.7572 -71.5153 33° Northeast 122 140 5,400  Level Boston Center
Thu 10:52:39 AM 42.7903 -71.4811 37° Northeast 122 140 5,400  Level Boston Center
Thu 10:53:40 AM 42.8150 -71.4581 34° Northeast 122 140 5,400  Level Boston Center
Thu 10:54:40 AM 42.8439 -71.4264 39° Northeast 122 140 5,400  Level Boston Center
Thu 10:55:41 AM 42.8689 -71.4061 31° Northeast 122 140 5,400  Level Boston Center
Thu 10:56:51 AM 42.9000 -71.3667 43° Northeast 120 138 5,400  Level KA90
Thu 10:57:51 AM 42.9333 -71.3333 36° Northeast 121 139 5,400  Level KA90
Thu 10:58:51 AM 42.9500 -71.3167 36° Northeast 124 143 5,400  Level KA90
Thu 10:59:57 AM 42.9833 -71.2833 36° Northeast 122 140 5,400  Level KA90
Thu 11:00:57 AM 43.0167 -71.2500 36° Northeast 126 145 5,400  Level KA90
Thu 11:01:57 AM 43.0500 -71.2333 20° North 124 143 5,400  Level KA90
Thu 11:02:52 AM 43.0667 -71.2000 56° Northeast 122 140 5,400  Level KA90
Thu 11:03:51 AM 43.1000 -71.1667 36° Northeast 123 142 5,400  Level KA90
Thu 11:04:52 AM 43.1167 -71.1500 36° Northeast 124 143 5,400  Level KA90
Thu 11:05:51 AM 43.1500 -71.1167 36° Northeast 123 142 5,400  Level KA90
Thu 11:06:52 AM 43.1833 -71.0833 36° Northeast 127 146 5,400  Level KA90
Thu 11:07:52 AM 43.2000 -71.0667 36° Northeast 127 146 5,400  Level KA90
Thu 11:08:58 AM 43.2333 -71.0333 36° Northeast 126 145 5,400  Level KA90
Thu 11:10:00 AM 43.2565 -70.9935 36° Northeast  Level FlightAware Approximate
Thu 11:17:00 AM 43.4519 -70.7943 37° Northeast  Level FlightAware Approximate
Thu 11:18:00 AM 43.4796 -70.7653 37° Northeast  Level FlightAware Approximate
Thu 11:19:00 AM 43.5072 -70.7363 37° Northeast  Level FlightAware Approximate
Thu 11:20:00 AM 43.5349 -70.7073 37° Northeast  Level FlightAware Approximate
Thu 11:21:00 AM 43.5625 -70.6783 37° Northeast  Level FlightAware Approximate
Thu 11:22:00 AM 43.5902 -70.6492 37° Northeast  Level FlightAware Approximate
Thu 11:23:00 AM 43.6178 -70.6201 37° Northeast  Level FlightAware Approximate
Thu 11:24:00 AM 43.6454 -70.5910 37° Northeast  Level FlightAware Approximate
Thu 11:25:00 AM 43.6730 -70.5618 37° Northeast  Level FlightAware Approximate
Thu 11:26:00 AM 43.7006 -70.5327 37° Northeast  Level FlightAware Approximate
Thu 11:27:00 AM 43.7284 -70.5037 37° Northeast  Level FlightAware Approximate
Thu 11:28:00 AM 43.7561 -70.4746 37° Northeast  Level FlightAware Approximate
Thu 11:29:00 AM 43.7838 -70.4456 37° Northeast  Level FlightAware Approximate
Thu 11:30:00 AM 43.8115 -70.4165 37° Northeast  Level FlightAware Approximate
Thu 11:31:00 AM 43.8391 -70.3874 37° Northeast  Level FlightAware Approximate
Thu 11:32:00 AM 43.8668 -70.3583 37° Northeast  Level FlightAware Approximate
Thu 11:33:00 AM 43.8945 -70.3291 37° Northeast  Level FlightAware Approximate
Thu 11:34:00 AM 43.9222 -70.2999 37° Northeast  Level FlightAware Approximate
Thu 11:35:00 AM 43.9498 -70.2707 37° Northeast  Level FlightAware Approximate
Thu 11:36:00 AM 43.9775 -70.2415 37° Northeast  Level FlightAware Approximate
Thu 11:37:00 AM 44.0051 -70.2122 37° Northeast  Level FlightAware Approximate
Thu 11:38:00 AM 44.0328 -70.1831 37° Northeast  Level FlightAware Approximate
Thu 11:39:00 AM 44.0606 -70.1541 37° Northeast  Level FlightAware Approximate
Thu 11:40:00 AM 44.0884 -70.1251 37° Northeast  Level FlightAware Approximate
Thu 11:41:00 AM 44.1162 -70.0960 37° Northeast  Level FlightAware Approximate
Thu 11:42:00 AM 44.1440 -70.0669 37° Northeast  Level FlightAware Approximate
Thu 11:43:00 AM 44.1717 -70.0378 37° Northeast  Level FlightAware Approximate
Thu 11:44:00 AM 44.1995 -70.0087 37° Northeast  Level FlightAware Approximate
Thu 11:45:00 AM 44.2273 -69.9795 37° Northeast  Level FlightAware Approximate
Thu 11:46:00 AM 44.2550 -69.9503 37° Northeast  Level FlightAware Approximate
Thu 11:47:00 AM 44.2827 -69.9210 37° Northeast  Level FlightAware Approximate
Thu 11:48:00 AM 44.3105 -69.8918 37° Northeast  Level FlightAware Approximate
Thu 11:49:00 AM 44.3382 -69.8625 37° Northeast  Level FlightAware Approximate
Thu 11:50:00 AM 44.3662 -69.8338 36° Northeast  Level FlightAware Approximate
Thu 11:51:00 AM 44.3945 -69.8055 36° Northeast  Level FlightAware Approximate
Thu 11:52:00 AM 44.4228 -69.7773 36° Northeast  Level FlightAware Approximate
Thu 11:53:00 AM 44.4499 -69.7469 41° Northeast  Level FlightAware Approximate
Thu 11:54:00 AM 44.4763 -69.7152 41° Northeast  Level FlightAware Approximate
Thu 11:55:00 AM 44.5027 -69.6835 41° Northeast  Level FlightAware Approximate
Thu 11:56:00 AM 44.5167 -69.6667 41° Northeast  Level FlightAware Approximate
Thu 11:57:00 AM 44.5332 -69.6755 41° Northeast  Level Estimated
Thu 11:58:00 AM 44.5332 -69.6755 41° Northeast  Level Estimated
Thu 11:59:00 AM 44.5332 -69.6755 41° Northeast  Level Estimated
Thu 12:00:00 PM 44.5332 -69.6755 41° Northeast  Level Estimated
Thu 12:01:00 PM 44.5332 -69.6755 41° Northeast  Level Estimated

Login

Don't have an account? Register now (free) for customized features, flight alerts, and more!